sensor_id;sensor_type;location;lat;lon;timestamp;P1;durP1;ratioP1;P2;durP2;ratioP2
76675;SDS011;69204;55.350;36.906;2023-05-07T00:00:29;20.37;;;10.40;;
76675;SDS011;69204;55.350;36.906;2023-05-07T00:05:31;21.13;;;10.50;;
76675;SDS011;69204;55.350;36.906;2023-05-07T00:10:33;25.03;;;11.30;;
76675;SDS011;69204;55.350;36.906;2023-05-07T00:15:34;21.67;;;10.18;;
76675;SDS011;69204;55.350;36.906;2023-05-07T00:20:35;27.58;;;10.63;;
76675;SDS011;69204;55.350;36.906;2023-05-07T00:25:36;20.50;;;9.33;;
76675;SDS011;69204;55.350;36.906;2023-05-07T00:30:37;16.67;;;9.18;;
76675;SDS011;69204;55.350;36.906;2023-05-07T00:35:38;17.07;;;9.30;;
76675;SDS011;69204;55.350;36.906;2023-05-07T00:40:40;17.00;;;8.55;;
76675;SDS011;69204;55.350;36.906;2023-05-07T00:45:43;15.68;;;8.65;;
76675;SDS011;69204;55.350;36.906;2023-05-07T00:50:44;19.55;;;9.50;;
76675;SDS011;69204;55.350;36.906;2023-05-07T00:55:46;22.15;;;9.93;;
76675;SDS011;69204;55.350;36.906;2023-05-07T01:00:47;21.33;;;10.17;;
76675;SDS011;69204;55.350;36.906;2023-05-07T01:05:48;27.83;;;11.77;;
76675;SDS011;69204;55.350;36.906;2023-05-07T01:10:49;24.95;;;10.57;;
76675;SDS011;69204;55.350;36.906;2023-05-07T01:15:50;23.42;;;11.02;;
76675;SDS011;69204;55.350;36.906;2023-05-07T01:20:52;22.55;;;11.90;;
76675;SDS011;69204;55.350;36.906;2023-05-07T01:25:53;24.23;;;10.33;;
76675;SDS011;69204;55.350;36.906;2023-05-07T01:30:57;21.58;;;10.35;;
76675;SDS011;69204;55.350;36.906;2023-05-07T01:36:02;24.77;;;10.82;;
76675;SDS011;69204;55.350;36.906;2023-05-07T01:41:06;23.08;;;9.57;;
76675;SDS011;69204;55.350;36.906;2023-05-07T01:46:08;23.63;;;11.40;;
76675;SDS011;69204;55.350;36.906;2023-05-07T01:51:10;30.20;;;10.90;;
76675;SDS011;69204;55.350;36.906;2023-05-07T01:56:11;23.90;;;11.40;;
76675;SDS011;69204;55.350;36.906;2023-05-07T02:01:12;34.63;;;12.60;;
76675;SDS011;69204;55.350;36.906;2023-05-07T02:06:14;33.17;;;13.30;;
76675;SDS011;69204;55.350;36.906;2023-05-07T02:11:15;35.65;;;15.93;;
76675;SDS011;69204;55.350;36.906;2023-05-07T02:16:16;25.00;;;12.07;;
76675;SDS011;69204;55.350;36.906;2023-05-07T02:21:17;25.77;;;12.55;;
76675;SDS011;69204;55.350;36.906;2023-05-07T02:26:18;26.77;;;11.80;;
76675;SDS011;69204;55.350;36.906;2023-05-07T02:31:20;23.15;;;10.52;;
76675;SDS011;69204;55.350;36.906;2023-05-07T02:36:21;21.15;;;12.35;;
76675;SDS011;69204;55.350;36.906;2023-05-07T02:41:22;25.53;;;12.47;;
76675;SDS011;69204;55.350;36.906;2023-05-07T02:46:23;24.60;;;12.20;;
76675;SDS011;69204;55.350;36.906;2023-05-07T02:51:25;23.10;;;11.47;;
76675;SDS011;69204;55.350;36.906;2023-05-07T02:56:27;25.58;;;12.10;;
76675;SDS011;69204;55.350;36.906;2023-05-07T03:01:28;23.23;;;11.02;;
76675;SDS011;69204;55.350;36.906;2023-05-07T03:06:29;20.90;;;10.60;;
76675;SDS011;69204;55.350;36.906;2023-05-07T03:11:30;20.80;;;9.00;;
76675;SDS011;69204;55.350;36.906;2023-05-07T03:16:31;20.00;;;10.13;;
76675;SDS011;69204;55.350;36.906;2023-05-07T03:21:31;65.05;;;24.25;;
76675;SDS011;69204;55.350;36.906;2023-05-07T03:26:34;21.43;;;9.57;;
76675;SDS011;69204;55.350;36.906;2023-05-07T03:31:35;25.40;;;12.13;;
76675;SDS011;69204;55.350;36.906;2023-05-07T03:36:36;16.10;;;8.97;;
76675;SDS011;69204;55.350;36.906;2023-05-07T03:41:36;18.17;;;9.52;;
76675;SDS011;69204;55.350;36.906;2023-05-07T03:46:37;15.37;;;8.80;;
76675;SDS011;69204;55.350;36.906;2023-05-07T03:51:38;17.20;;;8.77;;
76675;SDS011;69204;55.350;36.906;2023-05-07T03:56:39;19.85;;;10.27;;
76675;SDS011;69204;55.350;36.906;2023-05-07T04:01:40;11.73;;;6.77;;
76675;SDS011;69204;55.350;36.906;2023-05-07T04:06:42;10.07;;;6.57;;
76675;SDS011;69204;55.350;36.906;2023-05-07T04:11:43;12.73;;;8.00;;
76675;SDS011;69204;55.350;36.906;2023-05-07T04:16:44;10.02;;;6.30;;
76675;SDS011;69204;55.350;36.906;2023-05-07T04:21:45;26.42;;;13.50;;
76675;SDS011;69204;55.350;36.906;2023-05-07T04:26:46;11.07;;;6.30;;
76675;SDS011;69204;55.350;36.906;2023-05-07T04:31:47;11.68;;;6.40;;
76675;SDS011;69204;55.350;36.906;2023-05-07T04:36:48;9.57;;;5.20;;
76675;SDS011;69204;55.350;36.906;2023-05-07T04:41:50;7.30;;;4.82;;
76675;SDS011;69204;55.350;36.906;2023-05-07T04:46:51;6.93;;;4.40;;
76675;SDS011;69204;55.350;36.906;2023-05-07T04:51:52;6.13;;;3.60;;
76675;SDS011;69204;55.350;36.906;2023-05-07T04:56:53;5.50;;;3.90;;
76675;SDS011;69204;55.350;36.906;2023-05-07T05:01:54;5.83;;;3.93;;
76675;SDS011;69204;55.350;36.906;2023-05-07T05:06:55;6.80;;;3.67;;
76675;SDS011;69204;55.350;36.906;2023-05-07T05:11:57;4.70;;;3.15;;
76675;SDS011;69204;55.350;36.906;2023-05-07T05:17:00;5.50;;;3.33;;
76675;SDS011;69204;55.350;36.906;2023-05-07T05:22:01;4.10;;;2.80;;
76675;SDS011;69204;55.350;36.906;2023-05-07T05:27:04;5.60;;;2.60;;
76675;SDS011;69204;55.350;36.906;2023-05-07T05:32:06;5.55;;;2.60;;
76675;SDS011;69204;55.350;36.906;2023-05-07T05:37:07;3.97;;;2.30;;
76675;SDS011;69204;55.350;36.906;2023-05-07T05:42:08;4.50;;;2.63;;
76675;SDS011;69204;55.350;36.906;2023-05-07T05:47:10;4.18;;;2.45;;
76675;SDS011;69204;55.350;36.906;2023-05-07T05:52:11;5.13;;;2.40;;
76675;SDS011;69204;55.350;36.906;2023-05-07T05:57:14;4.43;;;2.30;;
76675;SDS011;69204;55.350;36.906;2023-05-07T06:02:16;7.07;;;2.50;;
76675;SDS011;69204;55.350;36.906;2023-05-07T06:07:17;3.70;;;2.10;;
76675;SDS011;69204;55.350;36.906;2023-05-07T06:12:18;3.47;;;1.77;;
76675;SDS011;69204;55.350;36.906;2023-05-07T06:17:20;3.97;;;2.20;;
76675;SDS011;69204;55.350;36.906;2023-05-07T06:22:22;4.15;;;2.20;;
76675;SDS011;69204;55.350;36.906;2023-05-07T06:27:23;9.02;;;5.82;;
76675;SDS011;69204;55.350;36.906;2023-05-07T06:32:24;4.67;;;2.90;;
76675;SDS011;69204;55.350;36.906;2023-05-07T06:37:26;5.90;;;2.80;;
76675;SDS011;69204;55.350;36.906;2023-05-07T06:42:28;3.70;;;2.43;;
76675;SDS011;69204;55.350;36.906;2023-05-07T06:47:29;4.38;;;2.63;;
76675;SDS011;69204;55.350;36.906;2023-05-07T06:52:31;4.22;;;2.55;;
76675;SDS011;69204;55.350;36.906;2023-05-07T06:57:32;5.27;;;2.00;;
76675;SDS011;69204;55.350;36.906;2023-05-07T07:02:33;5.15;;;2.22;;
76675;SDS011;69204;55.350;36.906;2023-05-07T07:07:35;4.50;;;2.57;;
76675;SDS011;69204;55.350;36.906;2023-05-07T07:12:36;4.82;;;2.47;;
76675;SDS011;69204;55.350;36.906;2023-05-07T07:17:37;4.15;;;2.40;;
76675;SDS011;69204;55.350;36.906;2023-05-07T07:22:38;7.37;;;4.07;;
76675;SDS011;69204;55.350;36.906;2023-05-07T07:27:39;4.00;;;2.45;;
76675;SDS011;69204;55.350;36.906;2023-05-07T07:32:40;11.33;;;2.60;;
76675;SDS011;69204;55.350;36.906;2023-05-07T07:37:42;4.05;;;2.30;;
76675;SDS011;69204;55.350;36.906;2023-05-07T07:42:44;5.75;;;2.45;;
76675;SDS011;69204;55.350;36.906;2023-05-07T07:47:45;5.78;;;2.20;;
76675;SDS011;69204;55.350;36.906;2023-05-07T07:52:46;4.07;;;2.08;;
76675;SDS011;69204;55.350;36.906;2023-05-07T07:57:47;4.27;;;2.27;;
76675;SDS011;69204;55.350;36.906;2023-05-07T08:02:48;3.60;;;2.10;;
76675;SDS011;69204;55.350;36.906;2023-05-07T08:07:50;4.35;;;2.65;;
76675;SDS011;69204;55.350;36.906;2023-05-07T08:12:54;3.78;;;2.35;;
76675;SDS011;69204;55.350;36.906;2023-05-07T08:17:55;7.38;;;3.00;;
76675;SDS011;69204;55.350;36.906;2023-05-07T08:22:57;5.50;;;2.20;;
76675;SDS011;69204;55.350;36.906;2023-05-07T08:28:00;5.38;;;2.78;;
76675;SDS011;69204;55.350;36.906;2023-05-07T08:33:01;5.43;;;2.47;;
76675;SDS011;69204;55.350;36.906;2023-05-07T08:38:02;6.80;;;3.57;;
76675;SDS011;69204;55.350;36.906;2023-05-07T08:43:05;6.68;;;3.28;;
76675;SDS011;69204;55.350;36.906;2023-05-07T08:48:14;7.50;;;4.27;;
76675;SDS011;69204;55.350;36.906;2023-05-07T08:53:16;8.85;;;3.55;;
76675;SDS011;69204;55.350;36.906;2023-05-07T08:58:17;7.97;;;4.05;;
76675;SDS011;69204;55.350;36.906;2023-05-07T09:03:18;8.80;;;3.60;;
76675;SDS011;69204;55.350;36.906;2023-05-07T09:08:19;10.00;;;4.30;;
76675;SDS011;69204;55.350;36.906;2023-05-07T09:13:27;10.07;;;4.37;;
76675;SDS011;69204;55.350;36.906;2023-05-07T09:18:28;10.88;;;4.63;;
76675;SDS011;69204;55.350;36.906;2023-05-07T09:23:29;9.23;;;4.10;;
76675;SDS011;69204;55.350;36.906;2023-05-07T09:28:31;4.60;;;2.70;;
76675;SDS011;69204;55.350;36.906;2023-05-07T09:33:33;7.95;;;3.40;;
76675;SDS011;69204;55.350;36.906;2023-05-07T09:38:36;7.70;;;3.63;;
76675;SDS011;69204;55.350;36.906;2023-05-07T09:43:38;7.90;;;4.05;;
76675;SDS011;69204;55.350;36.906;2023-05-07T09:48:41;6.97;;;3.97;;
76675;SDS011;69204;55.350;36.906;2023-05-07T09:53:44;5.88;;;3.20;;
76675;SDS011;69204;55.350;36.906;2023-05-07T09:58:46;4.03;;;2.15;;
76675;SDS011;69204;55.350;36.906;2023-05-07T10:03:47;4.67;;;2.57;;
76675;SDS011;69204;55.350;36.906;2023-05-07T10:08:50;5.60;;;2.50;;
76675;SDS011;69204;55.350;36.906;2023-05-07T10:13:52;3.60;;;2.17;;
76675;SDS011;69204;55.350;36.906;2023-05-07T10:18:54;4.60;;;2.30;;
76675;SDS011;69204;55.350;36.906;2023-05-07T10:24:00;4.05;;;1.83;;
76675;SDS011;69204;55.350;36.906;2023-05-07T10:29:18;6.90;;;2.63;;
76675;SDS011;69204;55.350;36.906;2023-05-07T10:34:32;4.47;;;2.10;;
76675;SDS011;69204;55.350;36.906;2023-05-07T10:39:37;4.17;;;2.43;;
76675;SDS011;69204;55.350;36.906;2023-05-07T10:44:38;4.65;;;2.60;;
76675;SDS011;69204;55.350;36.906;2023-05-07T10:54:47;5.83;;;2.30;;
76675;SDS011;69204;55.350;36.906;2023-05-07T11:05:31;5.97;;;3.00;;
76675;SDS011;69204;55.350;36.906;2023-05-07T11:15:54;4.47;;;2.13;;
76675;SDS011;69204;55.350;36.906;2023-05-07T11:20:56;4.60;;;2.37;;
76675;SDS011;69204;55.350;36.906;2023-05-07T11:26:08;4.18;;;1.80;;
76675;SDS011;69204;55.350;36.906;2023-05-07T11:31:11;3.87;;;1.70;;
76675;SDS011;69204;55.350;36.906;2023-05-07T11:36:12;4.60;;;2.00;;
76675;SDS011;69204;55.350;36.906;2023-05-07T11:41:13;4.93;;;2.20;;
76675;SDS011;69204;55.350;36.906;2023-05-07T11:46:16;4.37;;;1.93;;
76675;SDS011;69204;55.350;36.906;2023-05-07T11:51:21;3.65;;;2.20;;
76675;SDS011;69204;55.350;36.906;2023-05-07T11:56:26;15.87;;;2.53;;
76675;SDS011;69204;55.350;36.906;2023-05-07T12:01:27;4.75;;;2.28;;
76675;SDS011;69204;55.350;36.906;2023-05-07T12:06:28;5.22;;;2.13;;
76675;SDS011;69204;55.350;36.906;2023-05-07T12:11:30;8.30;;;2.97;;
76675;SDS011;69204;55.350;36.906;2023-05-07T12:16:31;6.30;;;2.58;;
76675;SDS011;69204;55.350;36.906;2023-05-07T12:21:33;5.80;;;2.27;;
76675;SDS011;69204;55.350;36.906;2023-05-07T12:26:38;4.95;;;2.40;;
76675;SDS011;69204;55.350;36.906;2023-05-07T12:31:42;4.55;;;2.60;;
76675;SDS011;69204;55.350;36.906;2023-05-07T12:36:44;55.57;;;15.57;;
76675;SDS011;69204;55.350;36.906;2023-05-07T12:41:58;41.92;;;12.48;;
76675;SDS011;69204;55.350;36.906;2023-05-07T12:47:03;4.20;;;2.20;;
76675;SDS011;69204;55.350;36.906;2023-05-07T12:52:04;120.65;;;32.25;;
76675;SDS011;69204;55.350;36.906;2023-05-07T12:57:09;5.82;;;2.22;;
76675;SDS011;69204;55.350;36.906;2023-05-07T13:02:11;6.03;;;2.20;;
76675;SDS011;69204;55.350;36.906;2023-05-07T13:07:12;4.20;;;2.10;;
76675;SDS011;69204;55.350;36.906;2023-05-07T13:12:15;5.70;;;2.07;;
76675;SDS011;69204;55.350;36.906;2023-05-07T13:17:16;4.40;;;2.30;;
76675;SDS011;69204;55.350;36.906;2023-05-07T13:22:18;4.32;;;2.10;;
76675;SDS011;69204;55.350;36.906;2023-05-07T13:27:19;4.57;;;1.93;;
76675;SDS011;69204;55.350;36.906;2023-05-07T13:32:21;4.13;;;2.08;;
76675;SDS011;69204;55.350;36.906;2023-05-07T13:37:21;4.00;;;2.20;;
76675;SDS011;69204;55.350;36.906;2023-05-07T13:42:25;3.70;;;2.00;;
76675;SDS011;69204;55.350;36.906;2023-05-07T13:47:26;3.90;;;2.00;;
76675;SDS011;69204;55.350;36.906;2023-05-07T13:52:27;5.23;;;2.23;;
76675;SDS011;69204;55.350;36.906;2023-05-07T13:57:32;13.30;;;9.90;;
76675;SDS011;69204;55.350;36.906;2023-05-07T14:02:34;4.30;;;2.50;;
76675;SDS011;69204;55.350;36.906;2023-05-07T14:07:36;4.57;;;2.15;;
76675;SDS011;69204;55.350;36.906;2023-05-07T14:12:37;5.57;;;2.13;;
76675;SDS011;69204;55.350;36.906;2023-05-07T14:17:38;6.90;;;2.10;;
76675;SDS011;69204;55.350;36.906;2023-05-07T14:22:40;5.13;;;2.10;;
76675;SDS011;69204;55.350;36.906;2023-05-07T14:27:40;3.57;;;1.97;;
76675;SDS011;69204;55.350;36.906;2023-05-07T14:32:41;3.85;;;2.10;;
76675;SDS011;69204;55.350;36.906;2023-05-07T14:37:43;4.03;;;2.13;;
76675;SDS011;69204;55.350;36.906;2023-05-07T14:42:45;3.93;;;2.70;;
76675;SDS011;69204;55.350;36.906;2023-05-07T14:47:46;4.40;;;2.40;;
76675;SDS011;69204;55.350;36.906;2023-05-07T14:52:47;3.93;;;2.00;;
76675;SDS011;69204;55.350;36.906;2023-05-07T14:57:48;8.77;;;1.83;;
76675;SDS011;69204;55.350;36.906;2023-05-07T15:02:49;5.40;;;2.40;;
76675;SDS011;69204;55.350;36.906;2023-05-07T15:07:50;3.50;;;1.80;;
76675;SDS011;69204;55.350;36.906;2023-05-07T15:12:52;5.35;;;2.55;;
76675;SDS011;69204;55.350;36.906;2023-05-07T15:17:54;38.13;;;20.30;;
76675;SDS011;69204;55.350;36.906;2023-05-07T15:22:55;14.70;;;8.68;;
76675;SDS011;69204;55.350;36.906;2023-05-07T15:27:57;8.33;;;3.70;;
76675;SDS011;69204;55.350;36.906;2023-05-07T15:33:00;9.05;;;4.50;;
76675;SDS011;69204;55.350;36.906;2023-05-07T15:38:02;6.28;;;3.10;;
76675;SDS011;69204;55.350;36.906;2023-05-07T15:43:04;5.90;;;1.97;;
76675;SDS011;69204;55.350;36.906;2023-05-07T15:48:05;8.13;;;3.10;;
76675;SDS011;69204;55.350;36.906;2023-05-07T15:53:07;5.67;;;2.93;;
76675;SDS011;69204;55.350;36.906;2023-05-07T15:58:08;6.72;;;2.20;;
76675;SDS011;69204;55.350;36.906;2023-05-07T16:03:09;6.97;;;3.13;;
76675;SDS011;69204;55.350;36.906;2023-05-07T16:08:10;4.63;;;2.10;;
76675;SDS011;69204;55.350;36.906;2023-05-07T16:13:12;11.02;;;6.70;;
76675;SDS011;69204;55.350;36.906;2023-05-07T16:18:13;11.93;;;4.57;;
76675;SDS011;69204;55.350;36.906;2023-05-07T16:23:18;66.32;;;25.63;;
76675;SDS011;69204;55.350;36.906;2023-05-07T16:28:19;15.90;;;7.82;;
76675;SDS011;69204;55.350;36.906;2023-05-07T16:33:20;197.00;;;46.00;;
76675;SDS011;69204;55.350;36.906;2023-05-07T16:38:21;209.32;;;54.00;;
76675;SDS011;69204;55.350;36.906;2023-05-07T16:43:23;298.43;;;65.40;;
76675;SDS011;69204;55.350;36.906;2023-05-07T16:48:25;112.40;;;27.27;;
76675;SDS011;69204;55.350;36.906;2023-05-07T16:53:26;81.40;;;25.40;;
76675;SDS011;69204;55.350;36.906;2023-05-07T16:58:27;52.20;;;20.20;;
76675;SDS011;69204;55.350;36.906;2023-05-07T17:03:28;70.13;;;24.35;;
76675;SDS011;69204;55.350;36.906;2023-05-07T17:08:31;92.07;;;27.90;;
76675;SDS011;69204;55.350;36.906;2023-05-07T17:13:32;137.15;;;55.75;;
76675;SDS011;69204;55.350;36.906;2023-05-07T17:18:33;78.35;;;24.20;;
76675;SDS011;69204;55.350;36.906;2023-05-07T17:23:36;28.00;;;8.30;;
76675;SDS011;69204;55.350;36.906;2023-05-07T17:28:37;41.58;;;18.75;;
76675;SDS011;69204;55.350;36.906;2023-05-07T17:33:39;78.73;;;24.90;;
76675;SDS011;69204;55.350;36.906;2023-05-07T17:38:40;132.60;;;41.53;;
76675;SDS011;69204;55.350;36.906;2023-05-07T17:43:41;126.15;;;39.20;;
76675;SDS011;69204;55.350;36.906;2023-05-07T17:48:42;40.83;;;15.20;;
76675;SDS011;69204;55.350;36.906;2023-05-07T17:53:46;49.40;;;14.30;;
76675;SDS011;69204;55.350;36.906;2023-05-07T17:58:50;36.40;;;11.87;;
76675;SDS011;69204;55.350;36.906;2023-05-07T18:03:52;33.35;;;8.75;;
76675;SDS011;69204;55.350;36.906;2023-05-07T18:08:56;32.28;;;10.70;;
76675;SDS011;69204;55.350;36.906;2023-05-07T18:13:58;39.20;;;11.93;;
76675;SDS011;69204;55.350;36.906;2023-05-07T18:19:01;47.92;;;15.02;;
76675;SDS011;69204;55.350;36.906;2023-05-07T18:24:03;30.23;;;10.10;;
76675;SDS011;69204;55.350;36.906;2023-05-07T18:29:07;20.98;;;8.63;;
76675;SDS011;69204;55.350;36.906;2023-05-07T18:34:09;37.53;;;14.30;;
76675;SDS011;69204;55.350;36.906;2023-05-07T18:39:13;30.37;;;11.87;;
76675;SDS011;69204;55.350;36.906;2023-05-07T18:44:15;59.55;;;19.45;;
76675;SDS011;69204;55.350;36.906;2023-05-07T18:49:18;43.50;;;15.57;;
76675;SDS011;69204;55.350;36.906;2023-05-07T18:54:20;34.80;;;11.88;;
76675;SDS011;69204;55.350;36.906;2023-05-07T18:59:22;37.45;;;15.05;;
76675;SDS011;69204;55.350;36.906;2023-05-07T19:04:27;39.37;;;15.93;;
76675;SDS011;69204;55.350;36.906;2023-05-07T19:09:31;37.50;;;14.23;;
76675;SDS011;69204;55.350;36.906;2023-05-07T19:14:35;62.00;;;25.70;;
76675;SDS011;69204;55.350;36.906;2023-05-07T19:19:40;68.88;;;25.05;;
76675;SDS011;69204;55.350;36.906;2023-05-07T19:24:42;69.30;;;25.20;;
76675;SDS011;69204;55.350;36.906;2023-05-07T19:29:43;129.73;;;39.00;;
76675;SDS011;69204;55.350;36.906;2023-05-07T19:34:44;132.48;;;40.42;;
76675;SDS011;69204;55.350;36.906;2023-05-07T19:39:46;140.70;;;46.73;;
76675;SDS011;69204;55.350;36.906;2023-05-07T19:44:47;94.38;;;32.53;;
76675;SDS011;69204;55.350;36.906;2023-05-07T19:49:49;155.00;;;55.22;;
76675;SDS011;69204;55.350;36.906;2023-05-07T19:54:51;93.13;;;33.70;;
76675;SDS011;69204;55.350;36.906;2023-05-07T19:59:53;75.88;;;29.10;;
76675;SDS011;69204;55.350;36.906;2023-05-07T20:04:54;91.23;;;34.27;;
76675;SDS011;69204;55.350;36.906;2023-05-07T20:09:55;102.05;;;38.20;;
76675;SDS011;69204;55.350;36.906;2023-05-07T20:15:00;105.73;;;39.93;;
76675;SDS011;69204;55.350;36.906;2023-05-07T20:20:05;103.97;;;36.97;;
76675;SDS011;69204;55.350;36.906;2023-05-07T20:25:12;91.15;;;33.42;;
76675;SDS011;69204;55.350;36.906;2023-05-07T20:30:21;87.33;;;32.97;;
76675;SDS011;69204;55.350;36.906;2023-05-07T20:35:26;92.28;;;30.60;;
76675;SDS011;69204;55.350;36.906;2023-05-07T20:40:39;97.70;;;34.93;;
76675;SDS011;69204;55.350;36.906;2023-05-07T20:45:46;91.22;;;35.10;;
76675;SDS011;69204;55.350;36.906;2023-05-07T20:50:54;111.38;;;39.85;;
76675;SDS011;69204;55.350;36.906;2023-05-07T20:56:04;104.07;;;38.80;;
76675;SDS011;69204;55.350;36.906;2023-05-07T21:01:11;101.60;;;38.28;;
76675;SDS011;69204;55.350;36.906;2023-05-07T21:07:03;104.57;;;42.33;;
76675;SDS011;69204;55.350;36.906;2023-05-07T21:12:05;107.38;;;38.50;;
76675;SDS011;69204;55.350;36.906;2023-05-07T21:17:18;99.18;;;37.65;;
76675;SDS011;69204;55.350;36.906;2023-05-07T21:22:27;91.70;;;36.07;;
76675;SDS011;69204;55.350;36.906;2023-05-07T21:27:40;108.43;;;41.25;;
76675;SDS011;69204;55.350;36.906;2023-05-07T21:32:45;116.63;;;43.27;;
76675;SDS011;69204;55.350;36.906;2023-05-07T21:37:56;136.30;;;51.10;;
76675;SDS011;69204;55.350;36.906;2023-05-07T21:43:04;295.10;;;87.38;;
76675;SDS011;69204;55.350;36.906;2023-05-07T21:48:11;165.53;;;62.03;;
76675;SDS011;69204;55.350;36.906;2023-05-07T21:53:18;203.52;;;70.40;;
76675;SDS011;69204;55.350;36.906;2023-05-07T21:58:25;236.70;;;77.90;;
76675;SDS011;69204;55.350;36.906;2023-05-07T22:03:32;204.25;;;67.95;;
76675;SDS011;69204;55.350;36.906;2023-05-07T22:08:43;171.75;;;61.10;;
76675;SDS011;69204;55.350;36.906;2023-05-07T22:13:50;161.70;;;58.17;;
76675;SDS011;69204;55.350;36.906;2023-05-07T22:18:50;147.20;;;54.05;;
76675;SDS011;69204;55.350;36.906;2023-05-07T22:23:52;136.50;;;52.27;;
76675;SDS011;69204;55.350;36.906;2023-05-07T22:28:58;130.30;;;48.85;;
76675;SDS011;69204;55.350;36.906;2023-05-07T22:34:01;137.23;;;51.78;;
76675;SDS011;69204;55.350;36.906;2023-05-07T22:39:02;124.35;;;46.20;;
76675;SDS011;69204;55.350;36.906;2023-05-07T22:44:06;128.30;;;50.83;;
76675;SDS011;69204;55.350;36.906;2023-05-07T22:49:07;128.90;;;52.30;;
76675;SDS011;69204;55.350;36.906;2023-05-07T22:54:08;125.88;;;49.42;;
76675;SDS011;69204;55.350;36.906;2023-05-07T22:59:09;128.83;;;50.03;;
76675;SDS011;69204;55.350;36.906;2023-05-07T23:04:10;133.50;;;49.30;;
76675;SDS011;69204;55.350;36.906;2023-05-07T23:09:11;131.73;;;51.47;;
76675;SDS011;69204;55.350;36.906;2023-05-07T23:14:12;123.77;;;49.50;;
76675;SDS011;69204;55.350;36.906;2023-05-07T23:19:14;125.03;;;50.47;;
76675;SDS011;69204;55.350;36.906;2023-05-07T23:24:15;130.27;;;50.33;;
76675;SDS011;69204;55.350;36.906;2023-05-07T23:29:16;133.48;;;50.63;;
76675;SDS011;69204;55.350;36.906;2023-05-07T23:34:17;145.95;;;57.50;;
76675;SDS011;69204;55.350;36.906;2023-05-07T23:39:23;152.13;;;61.53;;
76675;SDS011;69204;55.350;36.906;2023-05-07T23:44:29;153.95;;;56.22;;
76675;SDS011;69204;55.350;36.906;2023-05-07T23:49:30;160.70;;;58.60;;
76675;SDS011;69204;55.350;36.906;2023-05-07T23:54:32;137.40;;;55.08;;
76675;SDS011;69204;55.350;36.906;2023-05-07T23:59:33;137.20;;;54.17;;
